Time;durP1;ratioP1;P1;durP2;ratioP2;P2;SDS_P1;SDS_P2;PMS_P1;PMS_P2;Temp;Humidity;BMP_temperature;BMP_pressure;BME280_temperature;BME280_humidity;BME280_pressure;Samples;Min_cycle;Max_cycle;Signal;HPM_P1;HPM_P2
2022/04/02 00:00:55;;;;;;;0.30;0.30;;;2.90;88.40;;;;;;5032954;28;20257;-64
2022/04/02 00:03:21;;;;;;;0.40;0.40;;;2.90;88.20;;;;;;5033028;28;20162;-64
2022/04/02 00:05:47;;;;;;;0.40;0.40;;;3.00;88.20;;;;;;5034598;28;20195;-64
2022/04/02 00:08:12;;;;;;;0.30;0.30;;;3.10;88.10;;;;;;5037446;28;20871;-64
2022/04/02 00:10:38;;;;;;;0.30;0.30;;;2.90;87.80;;;;;;5036904;28;20185;-64
2022/04/02 00:13:04;;;;;;;0.40;0.40;;;2.70;88.40;;;;;;5037189;28;20175;-64
2022/04/02 00:15:30;;;;;;;0.30;0.30;;;2.80;88.50;;;;;;5037167;28;20184;-64
2022/04/02 00:17:55;;;;;;;0.30;0.30;;;2.80;88.30;;;;;;5037071;28;20591;-64
2022/04/02 00:20:21;;;;;;;0.30;0.30;;;2.90;88.40;;;;;;5052031;28;20457;-64
2022/04/02 00:25:31;;;;;;;0.45;0.45;;;3.00;87.90;;;;;;5036896;28;20397;-64
2022/04/02 00:27:57;;;;;;;0.43;0.43;;;3.00;88.10;;;;;;5036865;28;20660;-64
2022/04/02 00:30:23;;;;;;;0.60;0.60;;;3.00;88.80;;;;;;5036478;28;20536;-64
2022/04/02 00:32:49;;;;;;;0.30;0.30;;;3.10;88.10;;;;;;5036544;28;20401;-64
2022/04/02 00:35:15;;;;;;;0.30;0.30;;;3.10;87.60;;;;;;5036551;28;20401;-65
2022/04/02 00:37:41;;;;;;;0.40;0.40;;;3.10;87.60;;;;;;5036790;28;20217;-64
2022/04/02 00:40:07;;;;;;;0.40;0.40;;;3.00;87.80;;;;;;5036155;28;20863;-64
2022/04/02 00:42:33;;;;;;;0.40;0.40;;;3.00;87.90;;;;;;5036508;28;20556;-64
2022/04/02 00:44:59;;;;;;;0.40;0.40;;;2.70;88.60;;;;;;5036524;28;20167;-64
2022/04/02 00:47:24;;;;;;;0.40;0.40;;;2.60;89.10;;;;;;5036361;28;20398;-64
2022/04/02 00:49:54;;;;;;;0.40;0.40;;;2.70;89.70;;;;;;5036163;28;20163;-64
2022/04/02 00:52:24;;;;;;;0.30;0.30;;;2.60;89.30;;;;;;5036395;28;20175;-63
2022/04/02 00:54:52;;;;;;;0.50;0.50;;;2.30;89.70;;;;;;5036416;28;20178;-64
2022/04/02 00:57:18;;;;;;;0.40;0.40;;;2.30;90.40;;;;;;5036405;28;20177;-64
2022/04/02 00:59:45;;;;;;;0.30;0.30;;;2.30;90.30;;;;;;5035920;28;20261;-64
2022/04/02 01:02:10;;;;;;;0.40;0.40;;;2.60;90.60;;;;;;5036055;28;20472;-64
2022/04/02 01:04:36;;;;;;;0.30;0.30;;;2.70;90.40;;;;;;5036481;28;20171;-64
2022/04/02 01:07:03;;;;;;;0.40;0.40;;;2.90;90.00;;;;;;5036273;28;20254;-64
2022/04/02 01:09:29;;;;;;;0.40;0.40;;;3.00;89.70;;;;;;5035904;28;20187;-64
2022/04/02 01:11:56;;;;;;;0.40;0.40;;;3.00;89.60;;;;;;5036156;28;20550;-64
2022/04/02 01:14:22;;;;;;;0.43;0.43;;;3.00;89.70;;;;;;5036117;28;20198;-64
2022/04/02 01:16:48;;;;;;;0.40;0.40;;;3.00;89.40;;;;;;5035302;28;20257;-64
2022/04/02 01:19:13;;;;;;;0.40;0.40;;;3.00;89.30;;;;;;5035529;28;20329;-64
2022/04/02 01:21:39;;;;;;;0.50;0.50;;;3.00;89.30;;;;;;5035877;28;20739;-64
2022/04/02 01:24:05;;;;;;;0.40;0.40;;;3.00;89.60;;;;;;5035968;28;20198;-64
2022/04/02 01:26:31;;;;;;;0.40;0.40;;;2.90;89.20;;;;;;5035813;28;20305;-65
2022/04/02 01:28:59;;;;;;;0.30;0.30;;;2.80;89.30;;;;;;5035447;28;20243;-64
2022/04/02 01:31:25;;;;;;;0.43;0.43;;;2.80;89.60;;;;;;5035869;28;20178;-64
2022/04/02 01:33:52;;;;;;;0.40;0.40;;;2.90;89.10;;;;;;5035681;28;20593;-64
2022/04/02 01:36:19;;;;;;;0.40;0.40;;;2.50;90.00;;;;;;5035661;28;20258;-64
2022/04/02 01:38:45;;;;;;;0.50;0.50;;;2.30;89.90;;;;;;5035591;28;20194;-64
2022/04/02 01:41:12;;;;;;;0.40;0.40;;;2.40;90.20;;;;;;5035343;28;20286;-64
2022/04/02 01:43:37;;;;;;;0.40;0.40;;;2.50;90.10;;;;;;5035368;28;20171;-64
2022/04/02 01:46:04;;;;;;;0.40;0.40;;;2.50;90.00;;;;;;5035360;28;20641;-64
2022/04/02 01:48:30;;;;;;;0.40;0.40;;;2.60;89.80;;;;;;5035234;28;20249;-64
2022/04/02 01:50:56;;;;;;;0.40;0.40;;;2.50;89.30;;;;;;5035242;28;20181;-64
2022/04/02 01:53:24;;;;;;;0.40;0.40;;;2.10;89.50;;;;;;5035322;28;20166;-64
2022/04/02 01:55:50;;;;;;;0.40;0.40;;;1.60;90.30;;;;;;5034952;28;20404;-64
2022/04/02 01:58:16;;;;;;;0.30;0.30;;;1.80;91.00;;;;;;5035241;28;20195;-64
2022/04/02 02:00:42;;;;;;;0.50;0.50;;;1.80;90.90;;;;;;5034969;28;20226;-64
2022/04/02 02:03:09;;;;;;;0.40;0.40;;;1.60;90.90;;;;;;5035238;28;20202;-64
2022/04/02 02:05:35;;;;;;;0.63;0.63;;;1.30;91.20;;;;;;5035090;28;20178;-64
2022/04/02 02:08:02;;;;;;;0.45;0.45;;;1.10;92.10;;;;;;5034989;28;20195;-64
2022/04/02 02:10:29;;;;;;;0.40;0.40;;;1.30;92.50;;;;;;5034711;28;20261;-64
2022/04/02 02:12:54;;;;;;;0.40;0.40;;;1.20;92.40;;;;;;5034879;28;20185;-64
2022/04/02 02:15:20;;;;;;;0.40;0.40;;;1.10;92.90;;;;;;5034852;28;20254;-64
2022/04/02 02:17:47;;;;;;;0.30;0.30;;;1.30;93.20;;;;;;5035004;28;20244;-63
2022/04/02 02:20:14;;;;;;;0.40;0.40;;;1.20;93.10;;;;;;5034545;28;20230;-64
2022/04/02 02:22:40;;;;;;;2.72;2.53;;;1.30;93.20;;;;;;5034525;28;20273;-64
2022/04/02 02:25:08;;;;;;;0.75;0.75;;;1.60;93.60;;;;;;5034748;28;20209;-64
2022/04/02 02:27:34;;;;;;;0.30;0.30;;;1.70;93.00;;;;;;5034450;28;20163;-64
2022/04/02 02:30:01;;;;;;;0.40;0.40;;;1.80;92.70;;;;;;5033530;28;20183;-64
2022/04/02 02:32:26;;;;;;;0.30;0.30;;;1.80;92.30;;;;;;5034603;28;20171;-63
2022/04/02 02:37:37;;;;;;;0.40;0.40;;;1.50;92.90;;;;;;5034541;28;20201;-64
2022/04/02 02:40:04;;;;;;;0.30;0.30;;;1.90;92.90;;;;;;5034209;28;20168;-64
2022/04/02 02:42:31;;;;;;;0.40;0.40;;;2.10;92.60;;;;;;5034159;28;20178;-64
2022/04/02 02:44:57;;;;;;;0.40;0.40;;;2.10;91.70;;;;;;5034376;28;20175;-64
2022/04/02 02:47:23;;;;;;;0.30;0.30;;;2.20;91.80;;;;;;5034641;28;20171;-63
2022/04/02 02:49:48;;;;;;;0.50;0.50;;;2.20;91.60;;;;;;5033895;28;20236;-64
2022/04/02 02:52:14;;;;;;;0.40;0.40;;;2.10;91.40;;;;;;5034439;28;20170;-64
2022/04/02 02:54:40;;;;;;;0.40;0.40;;;2.10;91.20;;;;;;5034010;28;20824;-64
2022/04/02 02:57:06;;;;;;;0.40;0.40;;;1.70;91.10;;;;;;5033949;28;20639;-64
2022/04/02 02:59:33;;;;;;;0.40;0.40;;;1.90;91.90;;;;;;5033739;28;20425;-64
2022/04/02 03:01:59;;;;;;;0.30;0.30;;;2.00;91.60;;;;;;5033962;28;20291;-64
2022/04/02 03:04:24;;;;;;;0.37;0.37;;;2.20;91.60;;;;;;5034065;28;20585;-64
2022/04/02 03:06:50;;;;;;;0.40;0.40;;;2.20;91.20;;;;;;5033811;28;20174;-64
2022/04/02 03:09:15;;;;;;;0.30;0.30;;;1.90;90.90;;;;;;5033536;28;20191;-63
2022/04/02 03:11:41;;;;;;;0.40;0.40;;;2.00;91.20;;;;;;5033775;28;20186;-64
2022/04/02 03:14:07;;;;;;;0.40;0.40;;;2.00;91.60;;;;;;5033943;28;20170;-64
2022/04/02 03:16:32;;;;;;;0.40;0.40;;;2.20;92.20;;;;;;5049052;28;20417;-64
2022/04/02 03:19:00;;;;;;;0.40;0.40;;;2.00;91.20;;;;;;5033362;28;20281;-64
2022/04/02 03:21:27;;;;;;;0.30;0.30;;;1.60;91.30;;;;;;5033279;28;20198;-64
2022/04/02 03:23:53;;;;;;;0.40;0.40;;;1.80;91.70;;;;;;5033561;28;20163;-64
2022/04/02 03:26:19;;;;;;;0.30;0.30;;;2.00;92.00;;;;;;5033856;28;20307;-64
2022/04/02 03:28:46;;;;;;;0.60;0.60;;;2.00;91.80;;;;;;5033306;28;20191;-63
2022/04/02 03:31:12;;;;;;;0.40;0.40;;;2.00;91.60;;;;;;5033381;28;20225;-64
2022/04/02 03:33:37;;;;;;;0.40;0.40;;;2.30;91.60;;;;;;5033582;28;20656;-64
2022/04/02 03:36:04;;;;;;;0.40;0.40;;;2.30;91.30;;;;;;5033388;28;20171;-64
2022/04/02 03:38:30;;;;;;;0.40;0.40;;;2.50;90.60;;;;;;5033256;28;20199;-64
2022/04/02 03:40:56;;;;;;;0.40;0.40;;;2.60;90.80;;;;;;5033028;28;20264;-64
2022/04/02 03:43:22;;;;;;;0.38;0.38;;;2.70;90.60;;;;;;5033317;28;20413;-64
2022/04/02 03:45:48;;;;;;;0.30;0.30;;;2.70;90.40;;;;;;5033504;28;20176;-64
2022/04/02 03:48:13;;;;;;;0.40;0.40;;;2.60;90.40;;;;;;5033338;28;20265;-64
2022/04/02 03:50:39;;;;;;;0.50;0.50;;;2.60;90.30;;;;;;5033235;28;20660;-64
2022/04/02 03:53:05;;;;;;;0.30;0.30;;;2.40;90.10;;;;;;5033124;28;20675;-64
2022/04/02 03:55:31;;;;;;;0.40;0.40;;;2.60;90.60;;;;;;5033172;28;20405;-64
2022/04/02 03:57:56;;;;;;;0.40;0.40;;;2.80;90.70;;;;;;5032999;28;20807;-64
2022/04/02 04:00:22;;;;;;;0.40;0.40;;;2.80;90.00;;;;;;5032804;28;20190;-64
2022/04/02 04:02:48;;;;;;;0.40;0.40;;;2.30;88.70;;;;;;5033224;28;20561;-64
2022/04/02 04:05:14;;;;;;;0.40;0.40;;;2.30;90.00;;;;;;5033045;28;20888;-64
2022/04/02 04:07:40;;;;;;;0.40;0.40;;;2.40;90.20;;;;;;5033144;28;20171;-64
2022/04/02 04:10:06;;;;;;;2.80;1.70;;;2.40;90.20;;;;;;5032945;28;20221;-64
2022/04/02 04:12:32;;;;;;;0.30;0.30;;;1.90;91.30;;;;;;5033142;28;20529;-64
2022/04/02 04:14:58;;;;;;;0.40;0.40;;;2.10;91.70;;;;;;5033065;28;20238;-64
2022/04/02 04:17:23;;;;;;;0.40;0.40;;;2.20;92.00;;;;;;5033004;28;20163;-64
2022/04/02 04:19:50;;;;;;;0.40;0.40;;;2.40;91.80;;;;;;5032754;28;20609;-64
2022/04/02 04:22:17;;;;;;;0.40;0.40;;;2.50;91.20;;;;;;5032737;28;20460;-64
2022/04/02 04:24:43;;;;;;;0.40;0.40;;;2.50;90.80;;;;;;5033109;28;20262;-63
2022/04/02 04:27:09;;;;;;;0.30;0.30;;;2.20;90.80;;;;;;5033013;28;20262;-64
2022/04/02 04:29:35;;;;;;;0.40;0.40;;;2.30;91.00;;;;;;5032640;28;20195;-64
2022/04/02 04:32:02;;;;;;;0.40;0.40;;;2.40;91.20;;;;;;5032923;28;20217;-64
2022/04/02 04:34:28;;;;;;;0.38;0.38;;;2.30;90.70;;;;;;5032834;28;20640;-64
2022/04/02 04:36:53;;;;;;;0.40;0.40;;;1.70;90.40;;;;;;5032830;28;20281;-64
2022/04/02 04:39:19;;;;;;;0.30;0.30;;;1.60;91.40;;;;;;5032494;28;20559;-64
2022/04/02 04:41:44;;;;;;;0.50;0.50;;;1.90;92.00;;;;;;5032747;28;20202;-64
2022/04/02 04:44:10;;;;;;;0.40;0.40;;;2.20;91.60;;;;;;5032819;28;20178;-64
2022/04/02 04:46:36;;;;;;;0.40;0.40;;;2.40;91.30;;;;;;5032818;28;20174;-64
2022/04/02 04:49:02;;;;;;;1.00;1.00;;;2.40;91.50;;;;;;5032839;28;20218;-64
2022/04/02 04:51:28;;;;;;;0.30;0.30;;;2.40;91.20;;;;;;5032668;28;20488;-64
2022/04/02 04:53:54;;;;;;;0.40;0.40;;;2.40;91.60;;;;;;5035774;28;20408;-64
2022/04/02 04:56:20;;;;;;;0.40;0.40;;;2.40;90.90;;;;;;5035073;28;20266;-64
2022/04/02 04:58:45;;;;;;;0.40;0.40;;;2.40;90.80;;;;;;5035590;28;20195;-65
2022/04/02 05:01:12;;;;;;;0.40;0.40;;;2.40;90.40;;;;;;5036161;28;20198;-64
2022/04/02 05:03:39;;;;;;;0.40;0.40;;;2.40;90.90;;;;;;5035955;28;20261;-64
2022/04/02 05:06:09;;;;;;;0.40;0.40;;;2.40;91.50;;;;;;5036125;28;20175;-64
2022/04/02 05:08:34;;;;;;;0.32;0.32;;;2.50;91.50;;;;;;5036271;28;20183;-64
2022/04/02 05:11:01;;;;;;;0.60;0.60;;;2.60;91.10;;;;;;5035984;28;20225;-64
2022/04/02 05:13:28;;;;;;;0.40;0.40;;;2.50;90.70;;;;;;5036180;28;20213;-64
2022/04/02 05:15:54;;;;;;;0.40;0.40;;;2.60;90.70;;;;;;5036077;28;20178;-64
2022/04/02 05:18:20;;;;;;;0.40;0.40;;;2.70;90.70;;;;;;5035977;28;20194;-64
2022/04/02 05:20:46;;;;;;;0.30;0.30;;;2.70;90.00;;;;;;5035616;28;20445;-64
2022/04/02 05:23:11;;;;;;;0.40;0.40;;;2.70;89.80;;;;;;5036019;28;20257;-64
2022/04/02 05:25:38;;;;;;;0.40;0.40;;;2.80;90.10;;;;;;5035925;28;20167;-64
2022/04/02 05:28:04;;;;;;;0.40;0.40;;;2.80;89.90;;;;;;5035755;28;20195;-64
2022/04/02 05:30:37;;;;;;;0.40;0.40;;;2.90;90.00;;;;;;5035645;28;20645;-64
2022/04/02 05:33:03;;;;;;;0.40;0.40;;;2.90;89.40;;;;;;5035948;28;20174;-64
2022/04/02 05:35:29;;;;;;;0.30;0.30;;;2.90;89.20;;;;;;5035644;28;20179;-63
2022/04/02 05:37:55;;;;;;;0.40;0.40;;;3.00;88.70;;;;;;5035491;28;20426;-64
2022/04/02 05:40:20;;;;;;;0.50;0.50;;;2.90;87.00;;;;;;5035295;28;20672;-64
2022/04/02 05:42:46;;;;;;;0.40;0.40;;;2.80;86.80;;;;;;5035627;28;20170;-64
2022/04/02 05:45:12;;;;;;;0.40;0.40;;;2.70;87.80;;;;;;5035565;28;20436;-64
2022/04/02 05:47:43;;;;;;;0.30;0.30;;;2.90;88.10;;;;;;5035289;28;20641;-64
2022/04/02 05:50:11;;;;;;;0.40;0.40;;;3.00;87.60;;;;;;5033998;28;20178;-64
2022/04/02 05:52:37;;;;;;;0.30;0.30;;;3.00;87.10;;;;;;5035436;28;20175;-64
2022/04/02 05:55:04;;;;;;;0.65;0.65;;;2.80;86.20;;;;;;5035359;28;20221;-64
2022/04/02 05:57:30;;;;;;;0.40;0.40;;;2.90;87.60;;;;;;5035142;28;20170;-64
2022/04/02 05:59:56;;;;;;;0.40;0.40;;;3.00;87.60;;;;;;5034975;28;20172;-64
2022/04/02 06:02:22;;;;;;;0.30;0.30;;;3.10;87.60;;;;;;5035038;28;20699;-64
2022/04/02 06:04:47;;;;;;;0.30;0.30;;;3.10;87.40;;;;;;5034923;28;20422;-64
2022/04/02 06:07:13;;;;;;;0.30;0.30;;;3.10;87.80;;;;;;5035119;28;20754;-64
2022/04/02 06:09:39;;;;;;;0.40;0.40;;;3.30;88.40;;;;;;5034241;28;20208;-64
2022/04/02 06:12:05;;;;;;;0.40;0.40;;;3.30;89.00;;;;;;5034438;28;20172;-64
2022/04/02 06:14:31;;;;;;;0.30;0.30;;;3.40;87.30;;;;;;5035113;28;20418;-64
2022/04/02 06:16:56;;;;;;;0.30;0.30;;;3.50;86.20;;;;;;5035028;28;20553;-64
2022/04/02 06:19:22;;;;;;;0.30;0.30;;;3.70;86.50;;;;;;5034628;28;20697;-64
2022/04/02 06:21:47;;;;;;;0.30;0.30;;;3.70;85.50;;;;;;5034693;28;20207;-64
2022/04/02 06:24:13;;;;;;;0.30;0.30;;;3.70;86.00;;;;;;5034901;28;20168;-64
2022/04/02 06:26:39;;;;;;;0.30;0.30;;;3.20;85.80;;;;;;5034760;28;20174;-64
2022/04/02 06:29:04;;;;;;;0.30;0.30;;;3.30;87.60;;;;;;5034381;28;20195;-64
2022/04/02 06:31:30;;;;;;;0.30;0.30;;;3.30;87.80;;;;;;5034632;28;20685;-64
2022/04/02 06:33:55;;;;;;;0.40;0.40;;;3.40;88.70;;;;;;5034743;28;20179;-64
2022/04/02 06:36:21;;;;;;;0.30;0.30;;;3.60;87.90;;;;;;5034652;28;20173;-64
2022/04/02 06:38:47;;;;;;;0.33;0.33;;;3.70;86.50;;;;;;5034561;28;20203;-64
2022/04/02 06:41:12;;;;;;;0.40;0.40;;;3.80;86.20;;;;;;5034279;28;20553;-64
2022/04/02 06:43:38;;;;;;;0.30;0.30;;;3.70;84.60;;;;;;5034207;28;20195;-64
2022/04/02 06:46:04;;;;;;;0.40;0.40;;;3.70;85.70;;;;;;5034481;28;20165;-64
2022/04/02 06:48:29;;;;;;;0.30;0.30;;;3.90;85.80;;;;;;5034353;28;20192;-64
2022/04/02 06:50:55;;;;;;;0.30;0.30;;;3.90;85.70;;;;;;5034318;28;20177;-64
2022/04/02 06:53:21;;;;;;;0.30;0.30;;;4.10;85.70;;;;;;5034574;28;20227;-64
2022/04/02 06:55:47;;;;;;;0.40;0.40;;;4.20;84.00;;;;;;5034500;28;20412;-64
2022/04/02 06:58:28;;;;;;;0.40;0.40;;;4.50;84.60;;;;;;5034497;28;20550;-64
2022/04/02 07:00:54;;;;;;;0.35;0.35;;;5.10;83.20;;;;;;5034038;28;20441;-64
2022/04/02 07:03:20;;;;;;;0.57;0.57;;;4.70;82.30;;;;;;5034290;28;20170;-64
2022/04/02 07:05:45;;;;;;;0.30;0.30;;;4.80;82.30;;;;;;5034299;28;20165;-64
2022/04/02 07:08:11;;;;;;;0.37;0.37;;;4.90;81.90;;;;;;5034125;28;20256;-64
2022/04/02 07:10:36;;;;;;;0.30;0.30;;;4.70;81.00;;;;;;5033749;28;20219;-64
2022/04/02 07:13:02;;;;;;;0.30;0.30;;;4.70;80.60;;;;;;5034057;28;20201;-64
2022/04/02 07:15:28;;;;;;;0.30;0.30;;;4.80;82.80;;;;;;5033632;28;20732;-64
2022/04/02 07:17:53;;;;;;;0.30;0.30;;;5.00;83.00;;;;;;5033768;28;20541;-64
2022/04/02 07:20:19;;;;;;;0.30;0.30;;;5.10;83.00;;;;;;5033444;28;20174;-64
2022/04/02 07:22:47;;;;;;;0.30;0.30;;;5.10;80.40;;;;;;5033499;28;20188;-64
2022/04/02 07:25:13;;;;;;;0.30;0.30;;;5.00;80.40;;;;;;5033766;28;20547;-64
2022/04/02 07:27:40;;;;;;;0.40;0.40;;;5.00;79.60;;;;;;5033747;28;20174;-64
2022/04/02 07:30:07;;;;;;;0.35;0.35;;;4.40;78.00;;;;;;5032444;28;20544;-64
2022/04/02 07:32:33;;;;;;;0.30;0.30;;;4.40;79.90;;;;;;5033591;28;20176;-64
2022/04/02 07:34:59;;;;;;;0.30;0.30;;;4.30;80.30;;;;;;5033730;28;20175;-64
2022/04/02 07:37:40;;;;;;;0.37;0.37;;;4.10;80.30;;;;;;5033647;28;20182;-64
2022/04/02 07:40:22;;;;;;;0.40;0.40;;;4.10;80.60;;;;;;5033350;28;20400;-64
2022/04/02 07:43:01;;;;;;;0.40;0.40;;;3.70;80.10;;;;;;5033463;28;20240;-64
2022/04/02 07:45:32;;;;;;;0.40;0.40;;;3.90;80.90;;;;;;5033614;28;20201;-64
2022/04/02 07:47:58;;;;;;;0.30;0.30;;;3.80;81.30;;;;;;5033451;28;20255;-64
2022/04/02 07:50:26;;;;;;;0.35;0.35;;;3.80;82.50;;;;;;5033346;28;20591;-64
2022/04/02 07:52:55;;;;;;;0.30;0.30;;;4.00;80.90;;;;;;5033545;28;20173;-64
2022/04/02 07:55:22;;;;;;;0.30;0.30;;;4.00;79.90;;;;;;5033608;28;20169;-64
2022/04/02 07:57:52;;;;;;;0.30;0.30;;;4.00;81.40;;;;;;5033333;28;20232;-64
2022/04/02 08:00:20;;;;;;;0.30;0.30;;;3.90;79.20;;;;;;5032924;28;20188;-64
2022/04/02 08:02:49;;;;;;;0.30;0.30;;;3.90;80.00;;;;;;5033225;28;20178;-64
2022/04/02 08:05:20;;;;;;;0.30;0.30;;;4.00;79.30;;;;;;5033302;28;20189;-64
2022/04/02 08:07:52;;;;;;;0.30;0.30;;;4.30;81.30;;;;;;5033418;28;20176;-65
2022/04/02 08:10:19;;;;;;;0.30;0.30;;;4.40;80.60;;;;;;5033075;28;20219;-64
2022/04/02 08:12:46;;;;;;;1.58;1.25;;;4.40;78.00;;;;;;5033353;28;20591;-64
2022/04/02 08:15:16;;;;;;;0.30;0.30;;;4.50;78.60;;;;;;5033010;28;20180;-64
2022/04/02 08:17:43;;;;;;;0.40;0.40;;;4.60;78.20;;;;;;5033351;28;20253;-64
2022/04/02 08:20:10;;;;;;;0.30;0.30;;;4.80;78.40;;;;;;5032944;28;20166;-64
2022/04/02 08:22:36;;;;;;;0.30;0.30;;;4.90;77.30;;;;;;5033254;28;20179;-64
2022/04/02 08:25:03;;;;;;;0.38;0.38;;;5.10;74.80;;;;;;5033257;28;20168;-64
2022/04/02 08:27:47;;;;;;;0.30;0.30;;;5.60;75.70;;;;;;5034153;28;20170;-64
2022/04/02 08:30:34;;;;;;;0.40;0.40;;;6.20;71.70;;;;;;5036965;28;20284;-64
2022/04/02 08:33:26;;;;;;;0.30;0.30;;;6.60;68.80;;;;;;5037212;28;20543;-64
2022/04/02 08:36:00;;;;;;;0.30;0.30;;;7.10;68.70;;;;;;5037166;28;20163;-65
2022/04/02 08:38:34;;;;;;;0.35;0.35;;;7.80;65.60;;;;;;5037303;28;20212;-64
2022/04/02 08:41:11;;;;;;;0.40;0.40;;;8.00;64.50;;;;;;5035291;28;20597;-65
2022/04/02 08:44:24;;;;;;;0.45;0.45;;;7.90;62.40;;;;;;5034600;28;20166;-65
2022/04/02 08:47:08;;;;;;;0.38;0.38;;;8.00;60.10;;;;;;5035416;28;20193;-64
2022/04/02 08:49:41;;;;;;;0.40;0.40;;;7.10;59.50;;;;;;5036596;28;20194;-64
2022/04/02 08:52:15;;;;;;;0.40;0.40;;;6.40;64.70;;;;;;5036853;28;20233;-64
2022/04/02 08:55:16;;;;;;;0.30;0.30;;;6.10;67.20;;;;;;5036644;28;20598;-65
2022/04/02 08:57:50;;;;;;;0.40;0.40;;;5.90;67.60;;;;;;5036587;28;20254;-64
2022/04/02 09:00:23;;;;;;;0.40;0.40;;;5.10;69.50;;;;;;5036266;28;20169;-64
2022/04/02 09:03:07;;;;;;;0.40;0.40;;;4.70;71.30;;;;;;5036613;28;20178;-64
2022/04/02 09:06:01;;;;;;;0.30;0.30;;;4.40;73.20;;;;;;5036719;28;20162;-64
2022/04/02 09:08:35;;;;;;;0.40;0.40;;;4.70;72.60;;;;;;5036478;28;20275;-65
2022/04/02 09:11:23;;;;;;;0.30;0.30;;;4.60;72.60;;;;;;5036327;28;20169;-64
2022/04/02 09:13:56;;;;;;;0.40;0.40;;;4.30;70.60;;;;;;5036328;28;20171;-64
2022/04/02 09:16:27;;;;;;;0.30;0.30;;;3.90;72.50;;;;;;5036222;28;20599;-64
2022/04/02 09:19:13;;;;;;;0.30;0.30;;;3.70;72.80;;;;;;5036168;28;20202;-64
2022/04/02 09:22:05;;;;;;;0.30;0.30;;;3.80;72.40;;;;;;5035816;28;20206;-64
2022/04/02 09:24:59;;;;;;;0.40;0.40;;;4.40;74.00;;;;;;5036268;28;20171;-64
2022/04/02 09:27:30;;;;;;;0.40;0.40;;;5.40;71.00;;;;;;5036105;28;20163;-64
2022/04/02 09:30:15;;;;;;;0.40;0.40;;;5.80;70.90;;;;;;5034562;28;20175;-64
2022/04/02 09:32:43;;;;;;;0.40;0.40;;;6.30;65.50;;;;;;5035949;28;20169;-65
2022/04/02 09:35:35;;;;;;;0.38;0.38;;;6.40;64.50;;;;;;5036115;28;20664;-65
2022/04/02 09:38:12;;;;;;;0.40;0.40;;;6.40;66.00;;;;;;5035331;28;20670;-65
2022/04/02 09:40:50;;;;;;;0.30;0.30;;;6.10;66.20;;;;;;5035612;28;20202;-64
2022/04/02 09:43:29;;;;;;;0.40;0.40;;;6.10;68.90;;;;;;5035783;28;20197;-65
2022/04/02 09:46:30;;;;;;;0.30;0.30;;;5.90;66.90;;;;;;5035858;28;20167;-65
2022/04/02 09:49:00;;;;;;;0.30;0.30;;;5.20;67.40;;;;;;5035717;28;20190;-65
2022/04/02 09:51:42;;;;;;;1.10;1.10;;;5.30;69.10;;;;;;5036043;28;20545;-64
2022/04/02 09:54:45;;;;;;;4.53;3.42;;;5.40;71.60;;;;;;5035728;28;20273;-65
2022/04/02 09:57:50;;;;;;;0.40;0.40;;;5.80;71.20;;;;;;5034704;28;20562;-64
2022/04/02 10:00:16;;;;;;;0.30;0.30;;;5.30;68.10;;;;;;5035441;28;20196;-65
2022/04/02 10:03:01;;;;;;;0.30;0.30;;;5.20;68.80;;;;;;5035518;28;20170;-64
2022/04/02 10:05:49;;;;;;;0.30;0.30;;;5.20;68.20;;;;;;5035520;28;20178;-64
2022/04/02 10:08:34;;;;;;;0.30;0.30;;;4.90;66.20;;;;;;5035154;28;20202;-65
2022/04/02 10:11:02;;;;;;;0.30;0.30;;;4.70;67.70;;;;;;5035129;28;20261;-64
2022/04/02 10:13:33;;;;;;;0.40;0.40;;;4.60;67.80;;;;;;5035375;28;20680;-64
2022/04/02 10:16:05;;;;;;;0.82;0.82;;;4.70;67.50;;;;;;5035535;28;20247;-65
2022/04/02 10:18:35;;;;;;;1.20;1.13;;;4.80;69.00;;;;;;5034843;28;20221;-64
2022/04/02 10:21:05;;;;;;;0.38;0.38;;;5.00;70.50;;;;;;5034775;28;20658;-64
2022/04/02 10:23:37;;;;;;;0.30;0.30;;;5.00;72.10;;;;;;5035261;28;20175;-65
2022/04/02 10:26:14;;;;;;;0.30;0.30;;;4.90;70.10;;;;;;5035180;28;20162;-65
2022/04/02 10:28:53;;;;;;;0.30;0.30;;;4.90;71.40;;;;;;5034861;28;20197;-65
2022/04/02 10:31:30;;;;;;;0.40;0.40;;;5.00;71.00;;;;;;5035088;28;20563;-65
2022/04/02 10:34:07;;;;;;;0.30;0.30;;;5.30;70.90;;;;;;5035068;28;20181;-64
2022/04/02 10:36:40;;;;;;;0.30;0.30;;;5.50;69.30;;;;;;5034794;28;20174;-64
2022/04/02 10:39:08;;;;;;;0.30;0.30;;;5.80;70.30;;;;;;5034417;28;20244;-64
2022/04/02 10:41:38;;;;;;;0.30;0.30;;;6.00;69.10;;;;;;5034516;28;20566;-64
2022/04/02 10:44:31;;;;;;;0.30;0.30;;;6.30;69.30;;;;;;5034831;28;20166;-65
2022/04/02 10:47:02;;;;;;;0.30;0.30;;;6.20;69.40;;;;;;5033802;28;20245;-64
2022/04/02 10:49:34;;;;;;;0.40;0.40;;;5.80;68.50;;;;;;5033751;28;20191;-65
2022/04/02 10:52:02;;;;;;;0.30;0.30;;;6.10;68.40;;;;;;5034384;28;20177;-65
2022/04/02 10:54:29;;;;;;;0.40;0.40;;;6.40;67.60;;;;;;5034482;28;20179;-64
2022/04/02 10:56:56;;;;;;;0.40;0.40;;;6.70;65.40;;;;;;5034409;28;20183;-65
2022/04/02 10:59:26;;;;;;;0.40;0.40;;;7.00;62.70;;;;;;5034172;28;20199;-64
2022/04/02 11:01:58;;;;;;;0.40;0.40;;;6.70;62.30;;;;;;5034162;28;20672;-64
2022/04/02 11:04:44;;;;;;;0.40;0.40;;;6.50;64.90;;;;;;5034433;28;20175;-64
2022/04/02 11:07:10;;;;;;;0.40;0.40;;;6.80;68.00;;;;;;5034326;28;20205;-64
2022/04/02 11:09:39;;;;;;;0.30;0.30;;;6.70;65.30;;;;;;5049239;28;20203;-65
2022/04/02 11:12:15;;;;;;;0.40;0.40;;;6.40;66.70;;;;;;5034174;28;20653;-64
2022/04/02 11:14:45;;;;;;;0.30;0.30;;;6.30;68.90;;;;;;5034291;28;20181;-65
2022/04/02 11:17:32;;;;;;;0.30;0.30;;;6.50;68.10;;;;;;5034121;28;20246;-64
2022/04/02 11:20:21;;;;;;;0.38;0.38;;;6.70;69.00;;;;;;5033814;28;20246;-65
2022/04/02 11:22:48;;;;;;;0.40;0.40;;;7.00;64.80;;;;;;5033479;28;20293;-64
2022/04/02 11:25:36;;;;;;;0.40;0.40;;;6.90;61.50;;;;;;5033914;28;20167;-65
2022/04/02 11:28:05;;;;;;;0.40;0.40;;;7.20;63.90;;;;;;5033997;28;20187;-65
2022/04/02 11:30:33;;;;;;;0.40;0.40;;;7.60;63.20;;;;;;5033628;28;20169;-64
2022/04/02 11:33:10;;;;;;;0.40;0.40;;;8.00;62.10;;;;;;5033923;28;20179;-65
2022/04/02 11:35:57;;;;;;;0.30;0.30;;;7.80;62.10;;;;;;5033820;28;20173;-64
2022/04/02 11:38:37;;;;;;;0.38;0.38;;;7.90;62.40;;;;;;5033685;28;20191;-65
2022/04/02 11:41:34;;;;;;;0.30;0.30;;;8.10;59.40;;;;;;5033644;28;20728;-64
2022/04/02 11:44:18;;;;;;;0.40;0.40;;;8.30;60.20;;;;;;5033480;28;20210;-65
2022/04/02 11:46:54;;;;;;;0.40;0.40;;;8.30;60.10;;;;;;5033932;28;20209;-65
2022/04/02 11:49:33;;;;;;;0.40;0.40;;;8.20;58.60;;;;;;5033386;28;20567;-65
2022/04/02 11:52:06;;;;;;;0.30;0.30;;;8.10;59.50;;;;;;5033675;28;20594;-65
2022/04/02 11:54:57;;;;;;;0.75;0.75;;;8.00;62.00;;;;;;5033616;28;20593;-65
2022/04/02 11:57:22;;;;;;;0.30;0.30;;;7.80;62.20;;;;;;5033526;28;20640;-65
2022/04/02 11:59:56;;;;;;;0.30;0.30;;;6.90;59.50;;;;;;5033150;28;20248;-64
2022/04/02 12:02:40;;;;;;;0.32;0.32;;;6.50;62.00;;;;;;5033526;28;20668;-64
2022/04/02 12:05:10;;;;;;;0.40;0.40;;;6.10;63.90;;;;;;5033417;28;20175;-65
2022/04/02 12:07:45;;;;;;;0.30;0.30;;;6.10;62.40;;;;;;5033429;28;20170;-65
2022/04/02 12:10:18;;;;;;;0.30;0.30;;;6.10;69.30;;;;;;5033075;28;20261;-64
2022/04/02 12:12:45;;;;;;;0.30;0.30;;;6.00;67.80;;;;;;5033547;28;20178;-65
2022/04/02 12:15:11;;;;;;;0.40;0.40;;;6.30;65.80;;;;;;5033261;28;20182;-65
2022/04/02 12:17:39;;;;;;;0.30;0.30;;;6.50;69.10;;;;;;5033317;28;20195;-65
2022/04/02 12:20:10;;;;;;;0.30;0.30;;;6.80;64.80;;;;;;5033116;28;20175;-65
2022/04/02 12:22:39;;;;;;;0.32;0.32;;;6.90;63.70;;;;;;5033102;28;20567;-65
2022/04/02 12:25:06;;;;;;;0.40;0.40;;;6.80;65.80;;;;;;5033359;28;20171;-65
2022/04/02 12:27:34;;;;;;;0.30;0.30;;;7.00;63.00;;;;;;5033565;28;20171;-64
2022/04/02 12:30:03;;;;;;;0.40;0.40;;;7.00;64.50;;;;;;5033031;28;20171;-65
2022/04/02 12:32:37;;;;;;;0.30;0.30;;;7.10;63.30;;;;;;5033243;28;20174;-64
2022/04/02 12:35:25;;;;;;;0.30;0.30;;;7.30;60.80;;;;;;5033222;28;20529;-65
2022/04/02 12:37:57;;;;;;;0.40;0.40;;;7.40;59.70;;;;;;5033143;28;20549;-64
2022/04/02 12:40:28;;;;;;;0.40;0.40;;;7.70;59.60;;;;;;5033042;28;20179;-65
2022/04/02 12:43:05;;;;;;;0.43;0.43;;;7.70;60.10;;;;;;5033329;28;20179;-65
2022/04/02 12:45:33;;;;;;;0.40;0.40;;;7.50;58.40;;;;;;5033167;28;20202;-65
2022/04/02 12:48:05;;;;;;;0.40;0.40;;;6.90;58.30;;;;;;5033034;28;20193;-64
2022/04/02 12:50:51;;;;;;;0.40;0.40;;;6.70;60.00;;;;;;5032789;28;20171;-64
2022/04/02 12:53:38;;;;;;;0.90;0.90;;;6.80;58.90;;;;;;5033002;28;20660;-64
2022/04/02 12:56:06;;;;;;;0.30;0.30;;;6.60;62.30;;;;;;5033102;28;20193;-65
2022/04/02 12:58:43;;;;;;;0.40;0.40;;;6.70;61.10;;;;;;5033029;28;20187;-65
2022/04/02 13:01:12;;;;;;;0.40;0.40;;;6.80;63.30;;;;;;5032728;28;20199;-65
2022/04/02 13:04:07;;;;;;;0.30;0.30;;;6.70;60.80;;;;;;5033039;28;20171;-64
2022/04/02 13:06:45;;;;;;;1.10;1.10;;;6.80;60.20;;;;;;5033027;28;20512;-65
2022/04/02 13:09:19;;;;;;;0.30;0.30;;;6.40;62.50;;;;;;5032662;28;20616;-64
2022/04/02 13:11:57;;;;;;;0.40;0.40;;;6.40;61.90;;;;;;5032670;28;20169;-65
2022/04/02 13:14:28;;;;;;;0.30;0.30;;;6.00;61.90;;;;;;5035347;28;20166;-64
2022/04/02 13:17:17;;;;;;;0.50;0.50;;;6.00;63.00;;;;;;5036408;28;20630;-64
2022/04/02 13:22:50;;;;;;;0.30;0.30;;;5.80;65.20;;;;;;5036180;28;20656;-64